This is the latest recevied weather packets stored in our database for station/object W7DG. If no packets are shown the sender has not sent any weather packets the latest 10 day(s).
| Time | Temp. | Humidity | Pressure | Rain* | Wind** | Luminosity | Snow |
|---|---|---|---|---|---|---|---|
| 1777868650 | 23.33° C | 41% | 1009.2 hPa | 0 mm | - | - | - |
| 1777868289 | 23.33° C | 41% | 1009.2 hPa | 0 mm | - | - | - |
| 1777867750 | 23.33° C | 41% | 1009.2 hPa | 0 mm | - | - | - |
| 1777866850 | 23.89° C | 40% | 1008.9 hPa | 0 mm | - | - | - |
| 1777866489 | 23.89° C | 40% | 1009 hPa | 0 mm | - | - | - |
| 1777865951 | 23.89° C | 39% | 1008.9 hPa | 0 mm | - | - | - |
| 1777865589 | 24.44° C | 38% | 1008.8 hPa | 0 mm | - | - | - |
| 1777811950 | 16.11° C | 59% | 1013.3 hPa | 0 mm | - | - | - |
| 1777806552 | 16.11° C | 67% | 1013.7 hPa | 0 mm | - | - | - |
| 1777801151 | 16.11° C | 66% | 1014 hPa | 0 mm | - | - | - |
| 1777800789 | 16.11° C | 64% | 1013.9 hPa | 0 mm | - | - | - |
| 1777800250 | 16.67° C | 64% | 1014 hPa | 0 mm | - | - | - |
| 1777799889 | 16.67° C | 62% | 1014.1 hPa | 0 mm | - | - | - |
| 1777799351 | 17.22° C | 63% | 1014.1 hPa | 0 mm | - | - | - |
| 1777798989 | 17.22° C | 63% | 1014 hPa | 0 mm | - | - | - |
| 1777797551 | 17.22° C | 63% | 1014.2 hPa | 0 mm | - | - | - |
| 1777797189 | 17.22° C | 65% | 1014.3 hPa | 0 mm | - | - | - |
| 1777796651 | 17.22° C | 65% | 1014.3 hPa | 0 mm | - | - | - |
| 1777796289 | 17.22° C | 65% | 1014.4 hPa | 0 mm | - | - | - |
| 1777795751 | 17.22° C | 65% | 1014.4 hPa | 0 mm | - | - | - |
| 1777795389 | 17.22° C | 65% | 1014.3 hPa | 0 mm | - | - | - |
| 1777794850 | 16.67° C | 65% | 1014.4 hPa | 0 mm | - | - | - |
| 1777794489 | 17.22° C | 64% | 1014.6 hPa | 0 mm | - | - | - |
| 1777793950 | 17.22° C | 64% | 1014.7 hPa | 0 mm | - | - | - |
| 1777793589 | 17.22° C | 64% | 1014.6 hPa | 0 mm | - | - | - |
* Rain latest hour (hover to see other rain measurements)
** Current wind speed in m/s (hover to see current wind gust speed)